Sabadell, Spain

7:42 PM CET on February 12, 2016 (GMT +0100)
Bellaterra | | Change Station
CLOSE
Current Station
Personal Weather Station
Location: Sardañola Del Vallés, CATALUñA
Elevation: 512 ft
Nearby Weather Stations

Elev 512 ft 41.50 °N, 2.09 °E | Updated 13 seconds ago

Scattered Clouds
Scattered Clouds
60.4 °F
Feels Like 60.4 °F
N
3.6
Wind Variable Wind from East
Gusts 4.9 mph

Today
High -- | Low -- °F
--% Chance of Precip.
Yesterday
High -- | Low -- °F
Precip. -- in
Pressure 29.59 in
Visibility 6.2 miles
Clouds Scattered Clouds 5000 ft
Dew Point 55 °F
Humidity 81%
Rainfall 0.00 in
Snow Depth Not available.
7:51 AM 6:20 PM
Waxing Crescent, 22% visible
METAR LEBL 121830Z 21012KT 9999 SCT050 15/13 Q1002 NOSIG
Pressure 29.59 in
Visibility 6.2 miles
Clouds Scattered Clouds 5000 ft
Dew Point 55 °F
Humidity 81%
Rainfall 0.00 in
Snow Depth Not available.
7:51 AM 6:20 PM
Waxing Crescent, 22% visible
METAR LEBL 121830Z 21012KT 9999 SCT050 15/13 Q1002 NOSIG

10-Day Weather Forecast

Almanac

Astronomy

Feb. 12, 2016 Rise Set
Actual Time
Civil Twilight
Nautical Twilight
Astronomical Twilight
Moon
Length of Visible Light
Length of Day
Tomorrow will be .
, % of the Moon is Illuminated

Today's Extremes

Country Highs Country Lows

Community

WunderPhotos

Upload Photos

1,892,369 photos uploaded!

WunderBlog® & News

Nearby

Air Quality

  Air Quality AQ Index Pollutant
Not available.

Snow Depth

Station Depth Elevation

Earthquake Activity

City Distance Mag. Time & Date
Minimum magnitude displayed is 2.5.

Coastal Water Temperatures

Place Temperature

Stations

Nearby Weather Stations

Station Location Temp. Windchill Dew Point Humidity Wind Precip. Elev Updated Type